Time;durP1;ratioP1;P1;durP2;ratioP2;P2;SDS_P1;SDS_P2;PMS_P1;PMS_P2;Temp;Humidity;BMP_temperature;BMP_pressure;BME280_temperature;BME280_humidity;BME280_pressure;Samples;Min_cycle;Max_cycle;Signal;HPM_P1;HPM_P2
2021/07/09 00:01:56;;;;;;;7.78;5.65;;;;;;;23.39;64.68;101420.86;1746745;80;21674;-63
2021/07/09 00:04:24;;;;;;;8.75;5.95;;;;;;;23.31;64.86;101429.81;1761207;80;22076;-63
2021/07/09 00:06:50;;;;;;;7.72;4.87;;;;;;;23.25;65.08;101417.95;1773515;79;21120;-63
2021/07/09 00:09:17;;;;;;;6.50;5.05;;;;;;;23.25;65.34;101419.79;1750326;80;21587;-63
2021/07/09 00:11:47;;;;;;;6.45;4.08;;;;;;;23.29;65.36;101413.05;1770722;79;21132;-63
2021/07/09 00:14:16;;;;;;;6.78;5.22;;;;;;;23.32;65.28;101412.70;1761438;80;21054;-63
2021/07/09 00:16:46;;;;;;;8.50;4.83;;;;;;;23.29;65.24;101411.71;1776052;80;21070;-63
2021/07/09 00:19:13;;;;;;;7.47;4.97;;;;;;;23.23;65.29;101415.11;1734227;82;21472;-63
2021/07/09 00:21:40;;;;;;;9.13;5.08;;;;;;;23.18;65.47;101413.82;1738917;80;21051;-63
2021/07/09 00:24:07;;;;;;;9.85;5.45;;;;;;;23.13;65.90;101409.50;1746025;80;21017;-62
2021/07/09 00:26:35;;;;;;;8.75;5.78;;;;;;;23.11;66.24;101411.52;1772279;80;21103;-63
2021/07/09 00:29:03;;;;;;;10.53;5.80;;;;;;;23.08;66.43;101410.55;1747047;80;21111;-63
2021/07/09 00:31:32;;;;;;;8.20;5.35;;;;;;;23.08;66.05;101408.36;1751861;80;21029;-63
2021/07/09 00:34:01;;;;;;;8.68;5.35;;;;;;;23.07;65.75;101404.02;1782027;80;21077;-63
2021/07/09 00:36:27;;;;;;;7.25;5.60;;;;;;;23.01;65.68;101412.23;1766989;80;21116;-63
2021/07/09 00:38:54;;;;;;;7.03;5.33;;;;;;;22.89;65.87;101410.48;1769920;80;21063;-63
2021/07/09 00:41:22;;;;;;;7.90;5.83;;;;;;;22.81;66.04;101410.05;1728108;80;21112;-63
2021/07/09 00:43:49;;;;;;;8.88;5.72;;;;;;;22.76;65.97;101413.78;1769315;80;21603;-63
2021/07/09 00:46:15;;;;;;;8.98;5.97;;;;;;;22.71;66.10;101408.59;1733120;80;21111;-63
2021/07/09 00:48:43;;;;;;;7.92;5.40;;;;;;;22.64;66.29;101409.81;1768615;80;21421;-63
2021/07/09 00:51:11;;;;;;;6.55;5.30;;;;;;;22.59;66.55;101412.19;1767001;80;21009;-63
2021/07/09 00:53:39;;;;;;;6.97;5.10;;;;;;;22.60;66.66;101408.00;1781584;80;21108;-63
2021/07/09 00:56:06;;;;;;;8.58;5.62;;;;;;;22.61;66.69;101408.82;1749453;80;21594;-63
2021/07/09 00:58:33;;;;;;;8.15;6.47;;;;;;;22.57;66.77;101408.86;1780500;80;22302;-63
2021/07/09 01:00:59;;;;;;;7.75;5.80;;;;;;;22.49;67.01;101411.59;1731446;79;21147;-63
2021/07/09 01:03:26;;;;;;;9.10;5.78;;;;;;;22.44;67.12;101412.11;1744276;80;21095;-63
2021/07/09 01:05:53;;;;;;;9.48;6.40;;;;;;;22.41;67.11;101410.63;1763972;80;22139;-63
2021/07/09 01:08:19;;;;;;;8.70;6.53;;;;;;;22.39;67.01;101409.98;1768618;80;21299;-63
2021/07/09 01:10:48;;;;;;;7.55;6.22;;;;;;;22.36;66.96;101408.12;1768699;79;21694;-63
2021/07/09 01:13:14;;;;;;;8.03;6.33;;;;;;;22.34;66.96;101408.33;1773030;80;21296;-64
2021/07/09 01:15:42;;;;;;;9.25;6.03;;;;;;;22.29;66.98;101403.97;1708313;82;21571;-64
2021/07/09 01:18:10;;;;;;;8.45;6.53;;;;;;;22.26;66.95;101405.14;1756403;80;21991;-63
2021/07/09 01:20:38;;;;;;;10.00;6.22;;;;;;;22.23;66.98;101404.66;1787881;80;21030;-64
2021/07/09 01:23:06;;;;;;;7.12;5.30;;;;;;;22.16;66.77;101403.70;1792082;79;21085;-63
2021/07/09 01:25:32;;;;;;;8.40;5.83;;;;;;;22.10;66.91;101404.38;1759209;80;21113;-63
2021/07/09 01:28:03;;;;;;;7.67;6.03;;;;;;;22.04;67.03;101398.70;1800038;78;21066;-63
2021/07/09 01:30:32;;;;;;;9.18;5.72;;;;;;;22.00;66.99;101402.73;1773636;80;21061;-63
2021/07/09 01:32:59;;;;;;;9.73;5.80;;;;;;;22.01;67.00;101405.75;1788647;78;21050;-63
2021/07/09 01:35:26;;;;;;;8.48;5.75;;;;;;;22.02;67.04;101401.22;1788001;79;21073;-63
2021/07/09 01:38:06;;;;;;;10.32;6.65;;;;;;;22.01;67.28;101396.37;1789283;79;21711;-64
2021/07/09 01:40:37;;;;;;;8.05;5.67;;;;;;;22.02;67.41;101393.17;1754281;80;21068;-64
2021/07/09 01:43:05;;;;;;;9.33;6.25;;;;;;;22.01;67.41;101398.22;1791660;78;21054;-64
2021/07/09 01:45:32;;;;;;;8.38;5.80;;;;;;;21.96;67.35;101388.53;1778480;80;21105;-64
2021/07/09 01:47:58;;;;;;;7.70;5.70;;;;;;;21.92;67.41;101388.53;1778943;80;21113;-64
2021/07/09 01:50:25;;;;;;;8.63;6.15;;;;;;;21.93;67.35;101388.88;1771434;80;21453;-63
2021/07/09 01:52:52;;;;;;;10.95;6.10;;;;;;;21.97;67.31;101393.72;1780658;79;21077;-64
2021/07/09 01:55:18;;;;;;;8.20;6.22;;;;;;;22.00;67.44;101396.55;1772842;80;22107;-63
2021/07/09 01:57:46;;;;;;;10.32;7.05;;;;;;;21.98;67.29;101401.24;1768964;80;21121;-63
2021/07/09 02:00:19;;;;;;;8.68;6.28;;;;;;;21.93;67.16;101396.39;1756548;80;21074;-63
2021/07/09 02:02:46;;;;;;;9.03;7.60;;;;;;;21.87;67.13;101393.06;1787305;78;21143;-63
2021/07/09 02:05:15;;;;;;;8.55;6.22;;;;;;;21.83;67.28;101404.62;1787271;80;21046;-63
2021/07/09 02:07:43;;;;;;;9.88;7.15;;;;;;;21.77;67.38;101405.81;1778540;79;21154;-65
2021/07/09 02:10:13;;;;;;;9.38;6.70;;;;;;;21.77;67.55;101407.16;1783406;79;21010;-64
2021/07/09 02:12:40;;;;;;;7.40;5.15;;;;;;;21.77;67.66;101404.00;1756694;80;21667;-64
2021/07/09 02:15:11;;;;;;;7.10;4.80;;;;;;;21.76;67.64;101408.19;1777740;78;20997;-63
2021/07/09 02:17:39;;;;;;;8.30;5.22;;;;;;;21.77;67.73;101404.48;1784901;79;21049;-63
2021/07/09 02:20:07;;;;;;;6.72;4.78;;;;;;;21.76;67.61;101408.19;1773045;80;21501;-64
2021/07/09 02:22:35;;;;;;;7.15;4.87;;;;;;;21.71;67.58;101408.69;1782831;80;21064;-63
2021/07/09 02:25:05;;;;;;;6.45;5.00;;;;;;;21.68;67.64;101415.72;1764326;80;21110;-64
2021/07/09 02:27:42;;;;;;;10.55;5.62;;;;;;;21.62;67.60;101413.72;1735155;80;21051;-64
2021/07/09 02:30:12;;;;;;;8.33;5.67;;;;;;;21.63;67.51;101412.72;1767568;80;21081;-63
2021/07/09 02:32:40;;;;;;;6.62;5.22;;;;;;;21.67;67.39;101416.23;1773833;79;21136;-63
2021/07/09 02:35:08;;;;;;;7.65;4.97;;;;;;;21.68;67.32;101413.87;1733669;79;21061;-63
2021/07/09 02:37:36;;;;;;;8.40;5.25;;;;;;;21.70;67.36;101415.05;1782897;78;21038;-63
2021/07/09 02:40:08;;;;;;;8.70;5.55;;;;;;;21.69;67.44;101419.58;1765432;80;21082;-63
2021/07/09 02:42:34;;;;;;;7.28;5.83;;;;;;;21.67;67.64;101418.91;1757925;80;21072;-63
2021/07/09 02:45:01;;;;;;;8.03;5.67;;;;;;;21.67;67.68;101422.94;1764603;79;21124;-63
2021/07/09 02:47:28;;;;;;;7.83;5.30;;;;;;;21.70;67.94;101420.40;1756677;80;21051;-64
2021/07/09 02:49:54;;;;;;;10.43;5.67;;;;;;;21.77;67.64;101421.89;1777779;78;21061;-63
2021/07/09 02:52:21;;;;;;;8.35;6.42;;;;;;;21.80;67.60;101421.55;1761062;81;21364;-63
2021/07/09 02:54:47;;;;;;;11.40;6.47;;;;;;;21.83;67.73;101420.70;1791472;78;21626;-64
2021/07/09 02:57:14;;;;;;;8.13;6.17;;;;;;;21.82;67.96;101420.39;1735994;81;21131;-64
2021/07/09 02:59:40;;;;;;;9.88;5.65;;;;;;;21.83;67.97;101418.54;1788371;79;20990;-64
2021/07/09 03:02:08;;;;;;;9.00;6.30;;;;;;;21.83;67.83;101415.86;1766356;79;21581;-63
2021/07/09 03:04:34;;;;;;;9.78;7.20;;;;;;;21.82;67.75;101419.53;1787935;80;21108;-64
2021/07/09 03:07:03;;;;;;;13.53;6.67;;;;;;;21.85;67.70;101425.89;1784432;80;21049;-72
2021/07/09 03:09:31;;;;;;;11.68;6.62;;;;;;;21.91;67.70;101419.86;1761826;79;21029;-72
2021/07/09 03:12:00;;;;;;;12.35;6.90;;;;;;;21.97;67.74;101412.95;1761853;79;21090;-59
2021/07/09 03:14:27;;;;;;;11.33;7.20;;;;;;;22.01;67.75;101409.77;1766181;79;21546;-59
2021/07/09 03:16:53;;;;;;;11.33;7.12;;;;;;;22.03;67.77;101405.06;1744686;80;21088;-59
2021/07/09 03:19:20;;;;;;;10.70;7.35;;;;;;;22.03;67.88;101415.78;1741789;79;22484;-60
2021/07/09 03:21:46;;;;;;;10.68;5.92;;;;;;;22.04;67.91;101407.23;1759790;79;21134;-59
2021/07/09 03:24:13;;;;;;;7.55;5.90;;;;;;;22.07;67.95;101417.13;1765154;79;21034;-60
2021/07/09 03:26:39;;;;;;;10.18;6.22;;;;;;;22.13;68.00;101416.09;1799241;78;21060;-60
2021/07/09 03:29:06;;;;;;;9.70;6.30;;;;;;;22.22;67.94;101419.06;1799612;78;21689;-59
2021/07/09 03:31:33;;;;;;;9.65;6.28;;;;;;;22.30;67.67;101419.06;1789282;78;21053;-59
2021/07/09 03:34:00;;;;;;;11.97;8.00;;;;;;;22.37;67.53;101414.66;1798295;78;23384;-58
2021/07/09 03:36:27;;;;;;;10.53;7.55;;;;;;;22.41;67.72;101420.53;1760516;80;21635;-58
2021/07/09 03:38:58;;;;;;;7.30;3.87;;;;;;;22.42;67.70;101416.81;1791683;78;21092;-59
2021/07/09 03:41:25;;;;;;;6.80;4.75;;;;;;;22.43;65.76;101413.96;1791689;79;21694;-60
2021/07/09 03:43:52;;;;;;;9.38;3.98;;;;;;;22.49;65.17;101425.83;1788726;78;21110;-59
2021/07/09 03:46:19;;;;;;;5.35;3.58;;;;;;;22.53;64.36;101419.63;1791433;78;21757;-62
2021/07/09 03:48:45;;;;;;;7.97;5.05;;;;;;;22.56;63.40;101417.42;1768420;79;21105;-61
2021/07/09 03:51:13;;;;;;;5.58;3.52;;;;;;;22.59;64.14;101419.75;1795902;79;21055;-59
2021/07/09 03:53:39;;;;;;;6.85;2.70;;;;;;;22.66;63.28;101418.52;1764965;79;21473;-60
2021/07/09 03:56:05;;;;;;;5.55;3.25;;;;;;;22.74;62.45;101416.30;1795471;78;21076;-59
2021/07/09 03:58:32;;;;;;;5.72;3.08;;;;;;;22.80;61.56;101416.42;1797716;78;22211;-59
2021/07/09 04:00:59;;;;;;;5.78;3.22;;;;;;;22.86;60.87;101424.77;1782121;79;21062;-61
2021/07/09 04:03:26;;;;;;;4.97;3.17;;;;;;;22.88;60.58;101424.93;1796169;78;21655;-72
2021/07/09 04:05:52;;;;;;;4.95;2.92;;;;;;;22.90;59.19;101427.44;1745954;80;21092;-74
2021/07/09 04:08:19;;;;;;;7.83;3.55;;;;;;;22.91;58.45;101429.09;1797330;78;21101;-74
2021/07/09 04:10:47;;;;;;;8.23;3.02;;;;;;;22.92;58.65;101430.77;1764018;79;21122;-73
2021/07/09 04:13:14;;;;;;;5.45;3.08;;;;;;;22.92;58.48;101426.75;1777355;78;21646;-72
2021/07/09 04:15:40;;;;;;;6.72;3.25;;;;;;;22.94;58.20;101422.85;1807742;78;21069;-73
2021/07/09 04:18:08;;;;;;;5.90;3.30;;;;;;;22.95;56.66;101424.53;1795401;78;21666;-72
2021/07/09 04:20:34;;;;;;;6.47;3.10;;;;;;;22.94;56.81;101422.85;1792800;78;21078;-72
2021/07/09 04:23:01;;;;;;;8.78;3.40;;;;;;;22.94;56.94;101422.85;1798383;79;21046;-72
2021/07/09 04:25:27;;;;;;;5.22;2.58;;;;;;;22.96;56.99;101434.75;1801694;78;21593;-73
2021/07/09 04:27:54;;;;;;;5.65;3.35;;;;;;;22.97;57.43;101428.38;1799386;78;21123;-73
2021/07/09 04:30:21;;;;;;;5.37;2.92;;;;;;;22.98;57.85;101424.18;1801532;78;21068;-72
2021/07/09 04:32:47;;;;;;;7.12;3.30;;;;;;;23.07;58.19;101429.52;1775895;79;21335;-73
2021/07/09 04:35:14;;;;;;;5.92;2.65;;;;;;;23.16;57.95;101427.08;1780869;78;21753;-72
2021/07/09 04:37:41;;;;;;;8.35;3.47;;;;;;;23.23;57.77;101424.52;1770927;79;22463;-72
2021/07/09 04:40:08;;;;;;;4.90;2.60;;;;;;;23.27;57.72;101426.66;1793979;78;21057;-72
2021/07/09 04:42:36;;;;;;;7.15;2.77;;;;;;;23.31;56.44;101424.45;1743363;80;21599;-73
2021/07/09 04:45:05;;;;;;;5.10;2.50;;;;;;;23.33;55.33;101423.26;1766821;80;21588;-63
2021/07/09 04:47:31;;;;;;;4.37;2.10;;;;;;;23.37;54.61;101425.89;1780215;79;21098;-66
2021/07/09 04:50:00;;;;;;;5.10;2.47;;;;;;;23.40;54.32;101426.02;1761227;79;21072;-65
2021/07/09 04:52:26;;;;;;;5.78;2.62;;;;;;;23.42;53.94;101429.38;1800431;78;21100;-65
2021/07/09 04:54:54;;;;;;;4.97;2.72;;;;;;;23.43;53.96;101428.34;1796869;78;21068;-64
2021/07/09 04:57:21;;;;;;;5.72;2.50;;;;;;;23.45;53.96;101433.05;1794516;78;21056;-64
2021/07/09 04:59:48;;;;;;;4.87;2.15;;;;;;;23.46;53.68;101428.51;1787810;78;22264;-59
2021/07/09 05:02:14;;;;;;;4.50;2.47;;;;;;;23.47;53.62;101429.67;1788650;78;21382;-64
2021/07/09 05:04:40;;;;;;;5.12;2.60;;;;;;;23.49;53.72;101424.12;1791052;78;21046;-63
2021/07/09 05:07:07;;;;;;;6.12;2.70;;;;;;;23.53;54.16;101425.41;1767165;79;21366;-64
2021/07/09 05:09:33;;;;;;;4.33;2.35;;;;;;;23.54;53.96;101425.23;1797429;78;21049;-65
2021/07/09 05:12:01;;;;;;;6.12;2.55;;;;;;;23.59;53.84;101430.55;1792413;78;21103;-66
2021/07/09 05:14:27;;;;;;;4.92;2.52;;;;;;;23.61;53.85;101427.19;1797043;78;21331;-64
2021/07/09 05:16:55;;;;;;;5.20;2.60;;;;;;;23.64;54.22;101432.20;1793745;79;21062;-63
2021/07/09 05:19:21;;;;;;;5.35;2.62;;;;;;;23.67;54.01;101429.13;1766149;79;21081;-64
2021/07/09 05:21:48;;;;;;;5.62;2.25;;;;;;;23.70;53.76;101429.61;1776849;79;21108;-64
2021/07/09 05:24:15;;;;;;;5.60;2.67;;;;;;;23.74;53.63;101428.22;1772347;79;21698;-65
2021/07/09 05:26:43;;;;;;;4.72;2.25;;;;;;;23.78;52.85;101422.48;1767048;79;21061;-64
2021/07/09 05:29:09;;;;;;;6.60;2.80;;;;;;;23.81;52.90;101428.83;1764000;79;21112;-63
2021/07/09 05:31:36;;;;;;;5.20;2.52;;;;;;;23.86;52.66;101435.34;1749816;79;21604;-63
2021/07/09 05:34:03;;;;;;;4.95;2.67;;;;;;;23.90;52.41;101429.91;1748075;80;21109;-63
2021/07/09 05:36:30;;;;;;;6.33;2.37;;;;;;;23.97;52.53;101425.14;1782804;78;21065;-64
2021/07/09 05:38:57;;;;;;;4.37;2.30;;;;;;;24.03;51.86;101431.13;1768557;79;21037;-64
2021/07/09 05:41:25;;;;;;;4.65;2.37;;;;;;;24.07;51.57;101428.38;1764749;79;21862;-64
2021/07/09 05:43:51;;;;;;;4.67;2.42;;;;;;;24.13;51.39;101421.44;1771157;80;21068;-63
2021/07/09 05:46:18;;;;;;;4.60;2.20;;;;;;;24.19;51.96;101419.32;1769759;79;21064;-63
2021/07/09 05:48:45;;;;;;;8.13;2.30;;;;;;;24.27;51.58;101424.59;1762726;79;21130;-63
2021/07/09 05:51:12;;;;;;;6.90;2.00;;;;;;;24.33;51.38;101423.86;1761826;80;21048;-65
2021/07/09 05:53:38;;;;;;;4.60;2.40;;;;;;;24.37;51.05;101417.06;1742723;80;21110;-65
2021/07/09 05:56:06;;;;;;;4.80;2.30;;;;;;;24.44;51.04;101413.10;1768969;79;21112;-63
2021/07/09 05:58:32;;;;;;;6.25;3.05;;;;;;;24.49;51.31;101418.75;1764781;79;22041;-62
2021/07/09 06:00:59;;;;;;;5.25;2.42;;;;;;;24.55;51.12;101413.99;1762175;79;21170;-63
2021/07/09 06:03:25;;;;;;;7.85;3.15;;;;;;;24.61;50.68;101419.11;1748543;80;21053;-64
2021/07/09 06:05:52;;;;;;;4.45;2.55;;;;;;;24.65;49.22;101417.73;1766409;79;21040;-64
2021/07/09 06:08:20;;;;;;;4.45;2.30;;;;;;;24.68;48.73;101410.63;1765845;79;21087;-62
2021/07/09 06:10:48;;;;;;;4.30;1.95;;;;;;;24.71;48.54;101405.36;1765583;79;21107;-63
2021/07/09 06:13:14;;;;;;;4.55;2.40;;;;;;;24.75;48.51;101405.31;1763192;79;21900;-64
2021/07/09 06:15:40;;;;;;;5.15;2.45;;;;;;;24.81;49.16;101408.55;1766514;79;21040;-63
2021/07/09 06:18:07;;;;;;;4.65;2.33;;;;;;;24.88;49.71;101400.55;1735907;80;21071;-62
2021/07/09 06:20:33;;;;;;;6.50;2.65;;;;;;;24.95;49.27;101399.59;1768855;78;21071;-63
2021/07/09 06:23:00;;;;;;;4.25;2.22;;;;;;;25.03;48.71;101402.16;1805759;78;21128;-65
2021/07/09 06:25:27;;;;;;;4.75;2.22;;;;;;;25.12;49.51;101402.02;1794824;78;21174;-62
2021/07/09 06:27:53;;;;;;;4.37;2.33;;;;;;;25.21;49.00;101400.84;1792695;78;21175;-60
2021/07/09 06:30:19;;;;;;;5.65;2.65;;;;;;;25.28;48.90;101402.27;1794806;78;21065;-63
2021/07/09 06:32:46;;;;;;;4.40;1.92;;;;;;;25.31;48.53;101398.67;1792310;78;21101;-64
2021/07/09 06:35:13;;;;;;;4.12;2.17;;;;;;;25.37;48.10;101401.11;1794668;78;21063;-63
2021/07/09 06:37:42;;;;;;;5.72;2.52;;;;;;;25.44;48.12;101400.63;1796475;78;21546;-63
2021/07/09 06:40:10;;;;;;;4.30;2.15;;;;;;;25.53;48.20;101394.58;1793807;78;21046;-63
2021/07/09 06:42:36;;;;;;;4.35;2.05;;;;;;;25.63;48.20;101402.31;1771098;78;21080;-64
2021/07/09 06:45:04;;;;;;;4.78;2.33;;;;;;;25.70;46.97;101397.26;1765707;79;21131;-65
2021/07/09 06:47:30;;;;;;;4.95;2.33;;;;;;;25.77;47.26;101397.30;1763896;78;21097;-64
2021/07/09 06:49:57;;;;;;;5.75;2.08;;;;;;;25.87;47.61;101396.94;1797601;78;21137;-63
2021/07/09 06:52:23;;;;;;;4.42;2.30;;;;;;;25.96;47.00;101399.84;1802489;78;21060;-65
2021/07/09 06:54:50;;;;;;;4.20;2.20;;;;;;;26.04;47.40;101401.02;1797988;78;21547;-66
2021/07/09 06:57:16;;;;;;;5.97;1.98;;;;;;;26.12;47.01;101401.34;1802544;78;21099;-65
2021/07/09 06:59:44;;;;;;;4.95;2.60;;;;;;;26.20;46.52;101394.95;1792560;78;21599;-65
2021/07/09 07:02:11;;;;;;;4.53;2.02;;;;;;;26.25;46.07;101399.22;1801306;78;21068;-66
2021/07/09 07:04:40;;;;;;;5.53;2.33;;;;;;;26.28;46.10;101393.43;1795218;78;20982;-65
2021/07/09 07:07:06;;;;;;;5.12;2.90;;;;;;;26.33;45.79;101403.91;1798564;78;21029;-66
2021/07/09 07:09:37;;;;;;;5.22;2.87;;;;;;;26.39;45.57;101398.22;1798003;78;21544;-65
2021/07/09 07:12:05;;;;;;;4.22;2.15;;;;;;;26.45;45.38;101395.23;1797660;78;21112;-64
2021/07/09 07:14:34;;;;;;;4.65;2.52;;;;;;;26.52;44.92;101396.08;1799918;78;21119;-65
2021/07/09 07:17:02;;;;;;;5.90;2.37;;;;;;;26.58;44.49;101391.72;1797508;78;21318;-64
2021/07/09 07:19:28;;;;;;;5.58;1.70;;;;;;;26.66;43.49;101392.91;1797513;78;21100;-64
2021/07/09 07:21:58;;;;;;;5.08;2.50;;;;;;;26.72;42.10;101392.63;1761190;79;21657;-63
2021/07/09 07:24:25;;;;;;;4.83;2.47;;;;;;;26.76;42.46;101385.24;1798318;78;21096;-63
2021/07/09 07:26:52;;;;;;;7.90;2.58;;;;;;;26.79;43.28;101376.73;1800421;78;21109;-63
2021/07/09 07:29:19;;;;;;;6.08;2.60;;;;;;;26.86;41.86;101380.79;1791869;78;21069;-63
2021/07/09 07:31:45;;;;;;;6.30;2.08;;;;;;;26.93;41.46;101376.22;1803470;78;21576;-66
2021/07/09 07:34:11;;;;;;;5.05;2.17;;;;;;;27.01;40.96;101371.14;1803842;78;21390;-65
2021/07/09 07:36:38;;;;;;;3.98;2.20;;;;;;;27.11;40.95;101375.60;1795446;78;21057;-64
2021/07/09 07:39:04;;;;;;;7.62;2.92;;;;;;;27.18;39.97;101367.49;1797208;78;21062;-63
2021/07/09 07:41:32;;;;;;;4.62;2.27;;;;;;;27.23;39.89;101368.55;1798605;78;21084;-62
2021/07/09 07:43:58;;;;;;;5.35;2.80;;;;;;;27.30;40.06;101354.20;1802763;78;21124;-63
2021/07/09 07:46:27;;;;;;;6.95;2.58;;;;;;;27.36;39.80;101354.73;1798735;78;21073;-63
2021/07/09 07:48:55;;;;;;;4.62;2.58;;;;;;;27.42;39.66;101350.66;1767142;78;21045;-63
2021/07/09 07:51:23;;;;;;;8.43;1.98;;;;;;;27.50;37.02;101346.88;1817386;78;21690;-62
2021/07/09 07:53:50;;;;;;;6.58;2.42;;;;;;;27.57;37.46;101346.87;1805478;78;21033;-62
2021/07/09 07:56:17;;;;;;;5.03;2.22;;;;;;;27.63;37.33;101347.38;1802911;78;21053;-64
2021/07/09 07:58:44;;;;;;;5.75;3.37;;;;;;;27.64;37.69;101350.91;1801708;78;21119;-63
2021/07/09 08:01:11;;;;;;;4.60;2.62;;;;;;;27.68;37.89;101347.56;1791988;78;21108;-62
2021/07/09 08:03:40;;;;;;;5.47;2.65;;;;;;;27.74;37.91;101346.72;1785790;78;21069;-62
2021/07/09 08:06:07;;;;;;;4.87;2.60;;;;;;;27.80;38.81;101346.38;1801249;78;21017;-63
2021/07/09 08:08:33;;;;;;;4.58;2.40;;;;;;;27.85;37.55;101350.62;1803036;78;21056;-65
2021/07/09 08:10:59;;;;;;;6.03;3.33;;;;;;;27.88;37.54;101350.20;1795462;78;21069;-64
2021/07/09 08:13:26;;;;;;;5.10;2.58;;;;;;;27.92;37.02;101343.33;1793692;78;21654;-63
2021/07/09 08:15:52;;;;;;;5.08;2.30;;;;;;;28.00;36.84;101348.21;1794684;78;21493;-61
2021/07/09 08:18:19;;;;;;;6.75;2.50;;;;;;;28.05;37.39;101347.86;1794958;78;21098;-65
2021/07/09 08:20:46;;;;;;;7.95;3.42;;;;;;;28.12;37.55;101343.77;1768761;78;21075;-66
2021/07/09 08:23:12;;;;;;;4.60;2.10;;;;;;;28.16;37.45;101342.31;1793649;78;21129;-64
2021/07/09 08:25:40;;;;;;;5.30;2.15;;;;;;;28.14;35.55;101340.31;1793425;78;21089;-62
2021/07/09 08:28:07;;;;;;;4.17;2.00;;;;;;;28.11;36.30;101340.25;1790394;78;21901;-63
2021/07/09 08:30:34;;;;;;;6.67;2.30;;;;;;;28.13;37.25;101330.03;1794313;78;21065;-73
2021/07/09 08:33:01;;;;;;;5.42;2.35;;;;;;;28.19;37.14;101331.03;1762169;79;21066;-63
2021/07/09 08:35:28;;;;;;;4.95;2.15;;;;;;;28.23;36.67;101321.98;1770540;79;21101;-65
2021/07/09 08:37:55;;;;;;;4.40;2.20;;;;;;;28.26;36.90;101326.43;1794479;78;21115;-64
2021/07/09 08:40:21;;;;;;;5.45;2.30;;;;;;;28.28;36.74;101325.68;1790469;78;21120;-66
2021/07/09 08:42:48;;;;;;;3.98;1.87;;;;;;;28.35;37.50;101322.40;1790082;78;21096;-65
2021/07/09 08:45:14;;;;;;;4.10;2.33;;;;;;;28.43;35.70;101320.47;1793526;78;21088;-66
2021/07/09 08:47:41;;;;;;;4.33;2.12;;;;;;;28.48;35.98;101313.37;1792077;78;21620;-65
2021/07/09 08:50:10;;;;;;;4.62;2.33;;;;;;;28.53;36.51;101305.41;1789115;78;21081;-63
2021/07/09 08:52:36;;;;;;;4.62;2.40;;;;;;;28.63;36.58;101304.96;1787923;78;21939;-65
2021/07/09 08:55:05;;;;;;;4.42;1.67;;;;;;;28.72;35.07;101298.73;1790858;78;21693;-63
2021/07/09 08:57:32;;;;;;;4.53;2.15;;;;;;;28.76;34.83;101293.70;1774819;79;21044;-62
2021/07/09 08:59:59;;;;;;;4.87;2.12;;;;;;;28.78;34.81;101295.66;1791204;78;21135;-65
2021/07/09 09:02:26;;;;;;;5.55;2.50;;;;;;;28.80;34.91;101294.91;1764429;79;21092;-61
2021/07/09 09:04:53;;;;;;;4.55;2.35;;;;;;;28.82;34.97;101296.89;1770466;79;21037;-61
2021/07/09 09:07:20;;;;;;;7.00;2.83;;;;;;;28.85;36.01;101293.20;1772742;79;21540;-61
2021/07/09 09:09:47;;;;;;;6.17;2.65;;;;;;;28.91;35.40;101288.77;1762874;79;21157;-60
2021/07/09 09:12:16;;;;;;;4.53;2.62;;;;;;;28.95;36.35;101285.93;1768967;78;21414;-61
2021/07/09 09:14:45;;;;;;;4.67;2.90;;;;;;;29.01;36.18;101290.44;1792387;78;21077;-61
2021/07/09 09:17:33;;;;;;;5.67;1.95;;;;;;;29.09;37.21;101286.62;1790719;78;21146;-61
2021/07/09 09:20:18;;;;;;;5.03;2.17;;;;;;;29.19;36.78;101290.20;1759920;79;20950;-60
2021/07/09 09:22:56;;;;;;;3.83;1.95;;;;;;;29.28;36.38;101288.84;1786089;78;21006;-59
2021/07/09 09:25:29;;;;;;;3.98;2.22;;;;;;;29.35;36.51;101284.70;1782753;78;20938;-60
2021/07/09 09:28:05;;;;;;;4.40;2.30;;;;;;;29.38;35.62;101284.25;1763617;79;21175;-61
2021/07/09 09:30:32;;;;;;;4.42;2.27;;;;;;;29.39;35.37;101282.67;1746795;80;21140;-60
2021/07/09 09:33:02;;;;;;;4.50;2.00;;;;;;;29.38;34.91;101280.19;1747883;80;21950;-61
2021/07/09 09:35:37;;;;;;;6.12;2.40;;;;;;;29.41;35.29;101282.45;1785435;78;21022;-60
2021/07/09 09:38:08;;;;;;;5.42;2.15;;;;;;;29.42;34.62;101277.30;1786292;78;21008;-60
2021/07/09 09:40:36;;;;;;;6.62;1.90;;;;;;;29.41;34.24;101280.55;1764697;79;21365;-61
2021/07/09 09:43:15;;;;;;;6.97;2.00;;;;;;;29.37;33.78;101278.02;1760805;79;21069;-61
2021/07/09 09:45:41;;;;;;;5.30;2.00;;;;;;;29.35;34.37;101271.96;1767444;79;21185;-61
2021/07/09 09:48:13;;;;;;;4.35;2.27;;;;;;;29.38;35.10;101272.88;1761009;80;21099;-61
2021/07/09 09:50:50;;;;;;;6.08;2.60;;;;;;;29.41;34.37;101268.36;1763380;79;21076;-61
2021/07/09 09:53:32;;;;;;;4.30;2.12;;;;;;;29.42;33.32;101263.75;1762206;79;21666;-61
2021/07/09 09:56:10;;;;;;;6.12;2.50;;;;;;;29.42;34.71;101267.31;1766367;79;21187;-60
2021/07/09 09:58:37;;;;;;;4.15;2.05;;;;;;;29.52;35.17;101265.43;1765145;79;21100;-60
2021/07/09 10:01:04;;;;;;;5.58;3.20;;;;;;;29.60;35.83;101265.62;1764551;79;21076;-61
2021/07/09 10:03:32;;;;;;;4.37;2.22;;;;;;;29.68;34.88;101267.20;1764803;79;21474;-62
2021/07/09 10:05:59;;;;;;;4.58;2.42;;;;;;;29.73;34.40;101261.39;1738261;79;21118;-61
2021/07/09 10:08:25;;;;;;;5.22;2.45;;;;;;;29.78;33.18;101259.38;1762734;79;21058;-61
2021/07/09 10:10:53;;;;;;;5.83;2.33;;;;;;;29.78;33.30;101262.91;1762795;79;21528;-60
2021/07/09 10:13:23;;;;;;;5.20;2.45;;;;;;;29.75;33.64;101257.09;1759928;79;21067;-61
2021/07/09 10:15:53;;;;;;;6.47;2.55;;;;;;;29.76;34.75;101262.29;1760506;79;21860;-63
2021/07/09 10:18:20;;;;;;;4.92;2.62;;;;;;;29.81;34.19;101252.97;1743185;80;21157;-72
2021/07/09 10:20:51;;;;;;;5.08;2.30;;;;;;;29.88;34.65;101252.88;1741634;80;22519;-73
2021/07/09 10:23:24;;;;;;;7.15;2.95;;;;;;;29.93;34.03;101253.55;1799703;78;21062;-75
2021/07/09 10:27:12;;;;;;;5.75;2.22;;;;;;;30.04;34.51;101236.98;1802168;78;22737;-69
2021/07/09 10:29:44;;;;;;;5.70;2.47;;;;;;;30.05;32.92;101236.76;1771933;79;21141;-69
2021/07/09 10:32:10;;;;;;;8.70;2.65;;;;;;;30.06;33.92;101236.22;1766289;78;21759;-68
2021/07/09 10:34:41;;;;;;;5.05;2.33;;;;;;;30.07;32.42;101232.45;1767519;78;20891;-70
2021/07/09 10:37:21;;;;;;;5.25;2.60;;;;;;;30.08;34.01;101230.05;1765485;80;20899;-69
2021/07/09 10:39:49;;;;;;;5.65;2.50;;;;;;;30.06;33.70;101229.44;1742304;78;20959;-69
2021/07/09 10:42:20;;;;;;;6.03;2.42;;;;;;;30.07;34.29;101221.06;1763668;78;20903;-69
2021/07/09 10:45:00;;;;;;;4.67;2.08;;;;;;;30.13;34.75;101225.57;1759841;80;21089;-70
2021/07/09 10:47:49;;;;;;;4.40;2.27;;;;;;;30.20;34.01;101214.61;1768152;80;21611;-68
2021/07/09 10:50:49;;;;;;;5.12;2.22;;;;;;;30.19;34.51;101212.44;1754300;80;21528;-69
2021/07/09 10:53:21;;;;;;;4.92;2.15;;;;;;;30.19;34.28;101215.15;1762395;80;20971;-69
2021/07/09 10:56:08;;;;;;;3.95;1.95;;;;;;;30.23;33.55;101209.23;1769914;78;21478;-70
2021/07/09 10:58:40;;;;;;;4.95;2.00;;;;;;;30.27;33.38;101207.72;1756699;80;21033;-70
2021/07/09 11:01:12;;;;;;;5.20;2.02;;;;;;;30.31;33.88;101201.59;1758762;80;21455;-68
2021/07/09 11:03:42;;;;;;;4.00;2.17;;;;;;;30.35;33.10;101200.05;1763887;80;21519;-70
2021/07/09 11:06:15;;;;;;;5.62;2.92;;;;;;;30.38;33.25;101191.47;1769427;80;21058;-68
2021/07/09 11:09:02;;;;;;;5.00;2.12;;;;;;;30.40;33.98;101195.84;1734194;80;21081;-71
2021/07/09 11:11:49;;;;;;;4.87;2.35;;;;;;;30.43;33.17;101189.92;1736132;80;21932;-70
2021/07/09 11:14:20;;;;;;;4.20;2.15;;;;;;;30.46;33.56;101192.17;1749575;80;21997;-68
2021/07/09 11:16:50;;;;;;;4.97;2.00;;;;;;;30.56;33.10;101184.25;1767705;78;20969;-68
2021/07/09 11:19:18;;;;;;;4.40;2.40;;;;;;;30.62;33.30;101189.29;1744823;80;21077;-69
2021/07/09 11:21:50;;;;;;;4.67;2.33;;;;;;;30.64;32.69;101181.73;1767472;78;21069;-69
2021/07/09 11:24:22;;;;;;;4.28;2.40;;;;;;;30.56;33.74;101185.11;1766142;78;21143;-69
2021/07/09 11:26:51;;;;;;;5.37;2.52;;;;;;;30.55;34.52;101181.27;1758206;79;21041;-70
2021/07/09 11:29:38;;;;;;;4.12;2.00;;;;;;;30.59;33.20;101177.54;1753875;79;21042;-74
2021/07/09 11:32:17;;;;;;;5.58;2.00;;;;;;;30.61;32.47;101177.58;1736027;80;21054;-70